sensor_id;sensor_type;location;lat;lon;timestamp;pressure;altitude;pressure_sealevel;temperature;humidity
32330;BME280;18807;52.434;13.238;2023-02-14T00:05:17;103376.25;;;5.99;100.00
32330;BME280;18807;52.434;13.238;2023-02-14T00:12:52;103366.53;;;5.99;100.00
32330;BME280;18807;52.434;13.238;2023-02-14T00:20:27;103360.31;;;5.99;100.00
32330;BME280;18807;52.434;13.238;2023-02-14T00:28:02;103359.97;;;5.94;100.00
32330;BME280;18807;52.434;13.238;2023-02-14T00:35:37;103361.94;;;5.97;100.00
32330;BME280;18807;52.434;13.238;2023-02-14T00:43:12;103359.88;;;5.93;100.00
32330;BME280;18807;52.434;13.238;2023-02-14T00:50:46;103365.16;;;5.93;100.00
32330;BME280;18807;52.434;13.238;2023-02-14T00:58:21;103362.41;;;5.91;100.00
32330;BME280;18807;52.434;13.238;2023-02-14T01:05:55;103353.50;;;5.91;100.00
32330;BME280;18807;52.434;13.238;2023-02-14T01:13:30;103345.56;;;5.91;100.00
32330;BME280;18807;52.434;13.238;2023-02-14T01:21:13;103340.94;;;5.88;100.00
32330;BME280;18807;52.434;13.238;2023-02-14T01:28:50;103324.00;;;5.86;100.00
32330;BME280;18807;52.434;13.238;2023-02-14T01:36:25;103323.16;;;5.87;100.00
32330;BME280;18807;52.434;13.238;2023-02-14T01:44:02;103322.03;;;5.84;100.00
32330;BME280;18807;52.434;13.238;2023-02-14T01:51:43;103327.06;;;5.81;100.00
32330;BME280;18807;52.434;13.238;2023-02-14T01:59:24;103319.81;;;5.78;100.00
32330;BME280;18807;52.434;13.238;2023-02-14T02:07:03;103316.25;;;5.78;100.00
32330;BME280;18807;52.434;13.238;2023-02-14T02:14:40;103315.06;;;5.74;100.00
32330;BME280;18807;52.434;13.238;2023-02-14T02:30:42;103327.53;;;5.75;100.00
32330;BME280;18807;52.434;13.238;2023-02-14T02:38:36;103330.97;;;5.74;100.00
32330;BME280;18807;52.434;13.238;2023-02-14T02:46:21;103323.84;;;5.73;100.00
32330;BME280;18807;52.434;13.238;2023-02-14T02:54:19;103316.72;;;5.72;100.00
32330;BME280;18807;52.434;13.238;2023-02-14T03:02:00;103313.72;;;5.68;100.00
32330;BME280;18807;52.434;13.238;2023-02-14T03:10:01;103311.97;;;5.68;100.00
32330;BME280;18807;52.434;13.238;2023-02-14T03:17:40;103318.78;;;5.65;100.00
32330;BME280;18807;52.434;13.238;2023-02-14T03:25:32;103321.56;;;5.66;100.00
32330;BME280;18807;52.434;13.238;2023-02-14T03:33:13;103312.78;;;5.67;100.00
32330;BME280;18807;52.434;13.238;2023-02-14T03:40:56;103311.50;;;5.62;100.00
32330;BME280;18807;52.434;13.238;2023-02-14T03:48:32;103315.91;;;5.62;100.00
32330;BME280;18807;52.434;13.238;2023-02-14T03:56:12;103318.66;;;5.63;100.00
32330;BME280;18807;52.434;13.238;2023-02-14T04:03:49;103304.13;;;5.58;100.00
32330;BME280;18807;52.434;13.238;2023-02-14T04:11:27;103307.47;;;5.56;100.00
32330;BME280;18807;52.434;13.238;2023-02-14T04:19:04;103304.72;;;5.54;100.00
32330;BME280;18807;52.434;13.238;2023-02-14T04:26:58;103307.59;;;5.46;100.00
32330;BME280;18807;52.434;13.238;2023-02-14T04:34:47;103297.22;;;5.49;100.00
32330;BME280;18807;52.434;13.238;2023-02-14T04:42:23;103295.47;;;5.49;100.00
32330;BME280;18807;52.434;13.238;2023-02-14T04:49:57;103293.06;;;5.52;100.00
32330;BME280;18807;52.434;13.238;2023-02-14T04:57:32;103290.88;;;5.47;100.00
32330;BME280;18807;52.434;13.238;2023-02-14T05:05:06;103292.13;;;5.40;100.00
32330;BME280;18807;52.434;13.238;2023-02-14T05:12:42;103283.41;;;5.41;100.00
32330;BME280;18807;52.434;13.238;2023-02-14T05:20:16;103283.50;;;5.43;100.00
32330;BME280;18807;52.434;13.238;2023-02-14T05:27:51;103278.31;;;5.44;100.00
32330;BME280;18807;52.434;13.238;2023-02-14T05:35:26;103273.81;;;5.43;100.00
32330;BME280;18807;52.434;13.238;2023-02-14T05:43:01;103275.69;;;5.44;100.00
32330;BME280;18807;52.434;13.238;2023-02-14T05:50:35;103264.03;;;5.42;100.00
32330;BME280;18807;52.434;13.238;2023-02-14T05:58:11;103260.78;;;5.35;100.00
32330;BME280;18807;52.434;13.238;2023-02-14T06:05:45;103268.03;;;5.37;100.00
32330;BME280;18807;52.434;13.238;2023-02-14T06:13:20;103273.34;;;5.37;100.00
32330;BME280;18807;52.434;13.238;2023-02-14T06:20:56;103283.94;;;5.37;100.00
32330;BME280;18807;52.434;13.238;2023-02-14T06:28:32;103283.41;;;5.41;100.00
32330;BME280;18807;52.434;13.238;2023-02-14T06:36:07;103270.94;;;5.40;100.00
32330;BME280;18807;52.434;13.238;2023-02-14T06:43:43;103276.00;;;5.37;100.00
32330;BME280;18807;52.434;13.238;2023-02-14T06:51:17;103277.50;;;5.34;100.00
32330;BME280;18807;52.434;13.238;2023-02-14T06:58:52;103277.28;;;5.31;100.00
32330;BME280;18807;52.434;13.238;2023-02-14T07:06:26;103274.88;;;5.34;100.00
32330;BME280;18807;52.434;13.238;2023-02-14T07:14:01;103273.56;;;5.40;100.00
32330;BME280;18807;52.434;13.238;2023-02-14T07:21:35;103260.91;;;5.36;100.00
32330;BME280;18807;52.434;13.238;2023-02-14T07:29:11;103272.91;;;5.43;100.00
32330;BME280;18807;52.434;13.238;2023-02-14T07:36:46;103274.16;;;5.48;100.00
32330;BME280;18807;52.434;13.238;2023-02-14T07:44:21;103263.09;;;5.53;100.00
32330;BME280;18807;52.434;13.238;2023-02-14T07:51:55;103266.19;;;5.59;100.00
32330;BME280;18807;52.434;13.238;2023-02-14T07:59:30;103263.78;;;5.62;100.00
32330;BME280;18807;52.434;13.238;2023-02-14T08:07:04;103268.75;;;5.69;100.00
32330;BME280;18807;52.434;13.238;2023-02-14T08:14:40;103276.47;;;5.78;100.00
32330;BME280;18807;52.434;13.238;2023-02-14T08:22:14;103281.31;;;5.83;100.00
32330;BME280;18807;52.434;13.238;2023-02-14T08:29:51;103291.56;;;5.90;100.00
32330;BME280;18807;52.434;13.238;2023-02-14T08:37:26;103296.44;;;5.96;100.00
32330;BME280;18807;52.434;13.238;2023-02-14T08:45:01;103303.09;;;6.02;100.00
32330;BME280;18807;52.434;13.238;2023-02-14T08:52:35;103294.44;;;6.05;100.00
32330;BME280;18807;52.434;13.238;2023-02-14T09:00:13;103301.34;;;6.14;100.00
32330;BME280;18807;52.434;13.238;2023-02-14T09:07:48;103308.63;;;6.17;100.00
32330;BME280;18807;52.434;13.238;2023-02-14T09:15:23;103299.84;;;6.18;100.00
32330;BME280;18807;52.434;13.238;2023-02-14T09:22:57;103301.13;;;6.23;100.00
32330;BME280;18807;52.434;13.238;2023-02-14T09:30:32;103297.84;;;6.27;100.00
32330;BME280;18807;52.434;13.238;2023-02-14T09:38:09;103302.78;;;6.34;100.00
32330;BME280;18807;52.434;13.238;2023-02-14T09:45:53;103305.78;;;6.39;100.00
32330;BME280;18807;52.434;13.238;2023-02-14T09:53:29;103302.31;;;6.40;100.00
32330;BME280;18807;52.434;13.238;2023-02-14T10:01:12;103318.22;;;6.40;100.00
32330;BME280;18807;52.434;13.238;2023-02-14T10:08:58;103306.81;;;6.41;100.00
32330;BME280;18807;52.434;13.238;2023-02-14T10:16:39;103316.03;;;6.46;100.00
32330;BME280;18807;52.434;13.238;2023-02-14T10:24:18;103309.69;;;6.44;100.00
32330;BME280;18807;52.434;13.238;2023-02-14T10:31:57;103294.78;;;6.46;100.00
32330;BME280;18807;52.434;13.238;2023-02-14T10:40:00;103296.16;;;6.52;100.00
32330;BME280;18807;52.434;13.238;2023-02-14T10:47:41;103290.97;;;6.54;100.00
32330;BME280;18807;52.434;13.238;2023-02-14T10:55:21;103289.25;;;6.54;100.00
32330;BME280;18807;52.434;13.238;2023-02-14T11:03:08;103286.59;;;6.54;100.00
32330;BME280;18807;52.434;13.238;2023-02-14T11:10:42;103281.38;;;6.56;100.00
32330;BME280;18807;52.434;13.238;2023-02-14T11:18:21;103278.50;;;6.53;100.00
32330;BME280;18807;52.434;13.238;2023-02-14T11:25:56;103276.06;;;6.56;100.00
32330;BME280;18807;52.434;13.238;2023-02-14T11:33:37;103269.72;;;6.54;100.00
32330;BME280;18807;52.434;13.238;2023-02-14T11:41:14;103270.03;;;6.58;100.00
32330;BME280;18807;52.434;13.238;2023-02-14T11:48:56;103263.00;;;6.59;100.00
32330;BME280;18807;52.434;13.238;2023-02-14T11:56:49;103253.78;;;6.54;100.00
32330;BME280;18807;52.434;13.238;2023-02-14T12:04:31;103248.88;;;6.47;100.00
32330;BME280;18807;52.434;13.238;2023-02-14T12:12:24;103234.97;;;6.51;100.00
32330;BME280;18807;52.434;13.238;2023-02-14T12:20:03;103229.56;;;6.49;100.00
32330;BME280;18807;52.434;13.238;2023-02-14T12:27:46;103211.91;;;6.50;100.00
32330;BME280;18807;52.434;13.238;2023-02-14T12:35:39;103205.28;;;6.56;100.00
32330;BME280;18807;52.434;13.238;2023-02-14T12:43:44;103196.63;;;6.59;100.00
32330;BME280;18807;52.434;13.238;2023-02-14T12:51:24;103183.34;;;6.59;100.00
32330;BME280;18807;52.434;13.238;2023-02-14T12:59:07;103182.31;;;6.57;100.00
32330;BME280;18807;52.434;13.238;2023-02-14T13:06:47;103172.72;;;6.59;100.00
32330;BME280;18807;52.434;13.238;2023-02-14T13:14:39;103168.50;;;6.49;100.00
32330;BME280;18807;52.434;13.238;2023-02-14T13:22:17;103169.75;;;6.54;100.00
32330;BME280;18807;52.434;13.238;2023-02-14T13:29:55;103164.91;;;6.49;100.00
32330;BME280;18807;52.434;13.238;2023-02-14T13:37:33;103152.56;;;6.49;100.00
32330;BME280;18807;52.434;13.238;2023-02-14T13:45:51;103143.19;;;6.54;100.00
32330;BME280;18807;52.434;13.238;2023-02-14T13:53:30;103140.44;;;6.53;100.00
32330;BME280;18807;52.434;13.238;2023-02-14T14:01:34;103152.16;;;6.56;100.00
32330;BME280;18807;52.434;13.238;2023-02-14T14:09:09;103142.59;;;6.58;100.00
32330;BME280;18807;52.434;13.238;2023-02-14T14:16:55;103135.81;;;6.50;100.00
32330;BME280;18807;52.434;13.238;2023-02-14T14:24:30;103129.31;;;6.58;100.00
32330;BME280;18807;52.434;13.238;2023-02-14T14:32:09;103128.69;;;6.62;100.00
32330;BME280;18807;52.434;13.238;2023-02-14T14:39:49;103123.38;;;6.62;100.00
32330;BME280;18807;52.434;13.238;2023-02-14T14:47:28;103121.97;;;6.54;100.00
32330;BME280;18807;52.434;13.238;2023-02-14T14:55:06;103116.75;;;6.56;100.00
32330;BME280;18807;52.434;13.238;2023-02-14T15:02:54;103104.47;;;6.58;100.00
32330;BME280;18807;52.434;13.238;2023-02-14T15:10:29;103100.41;;;6.50;100.00
32330;BME280;18807;52.434;13.238;2023-02-14T15:18:06;103099.56;;;6.51;100.00
32330;BME280;18807;52.434;13.238;2023-02-14T15:25:43;103096.91;;;6.51;100.00
32330;BME280;18807;52.434;13.238;2023-02-14T15:33:20;103093.75;;;6.43;100.00
32330;BME280;18807;52.434;13.238;2023-02-14T15:40:54;103081.78;;;6.37;100.00
32330;BME280;18807;52.434;13.238;2023-02-14T15:48:31;103071.88;;;6.34;100.00
32330;BME280;18807;52.434;13.238;2023-02-14T15:56:09;103067.88;;;6.28;100.00
32330;BME280;18807;52.434;13.238;2023-02-14T16:03:49;103060.13;;;6.31;100.00
32330;BME280;18807;52.434;13.238;2023-02-14T16:11:27;103059.09;;;6.29;100.00
32330;BME280;18807;52.434;13.238;2023-02-14T16:19:02;103053.09;;;6.31;100.00
32330;BME280;18807;52.434;13.238;2023-02-14T16:26:39;103054.50;;;6.26;100.00
32330;BME280;18807;52.434;13.238;2023-02-14T16:34:15;103053.59;;;6.26;100.00
32330;BME280;18807;52.434;13.238;2023-02-14T16:41:50;103056.44;;;6.16;100.00
32330;BME280;18807;52.434;13.238;2023-02-14T16:49:27;103061.78;;;6.04;100.00
32330;BME280;18807;52.434;13.238;2023-02-14T16:57:02;103054.53;;;6.01;100.00
32330;BME280;18807;52.434;13.238;2023-02-14T17:04:39;103067.69;;;6.00;100.00
32330;BME280;18807;52.434;13.238;2023-02-14T17:12:15;103058.22;;;6.03;100.00
32330;BME280;18807;52.434;13.238;2023-02-14T17:19:53;103059.63;;;5.98;100.00
32330;BME280;18807;52.434;13.238;2023-02-14T17:27:27;103058.38;;;5.93;100.00
32330;BME280;18807;52.434;13.238;2023-02-14T17:35:02;103058.97;;;5.89;100.00
32330;BME280;18807;52.434;13.238;2023-02-14T17:42:37;103051.97;;;5.90;100.00
32330;BME280;18807;52.434;13.238;2023-02-14T17:50:13;103049.19;;;5.88;100.00
32330;BME280;18807;52.434;13.238;2023-02-14T17:57:47;103044.63;;;5.86;100.00
32330;BME280;18807;52.434;13.238;2023-02-14T18:05:25;103040.31;;;5.88;100.00
32330;BME280;18807;52.434;13.238;2023-02-14T18:12:59;103025.22;;;5.87;100.00
32330;BME280;18807;52.434;13.238;2023-02-14T18:28:08;103024.44;;;5.76;100.00
32330;BME280;18807;52.434;13.238;2023-02-14T18:35:44;103019.22;;;5.78;100.00
32330;BME280;18807;52.434;13.238;2023-02-14T18:43:18;102993.44;;;5.75;100.00
32330;BME280;18807;52.434;13.238;2023-02-14T18:50:53;102997.28;;;5.67;100.00
32330;BME280;18807;52.434;13.238;2023-02-14T18:58:27;102974.81;;;5.62;100.00
32330;BME280;18807;52.434;13.238;2023-02-14T19:06:03;102988.06;;;5.62;100.00
32330;BME280;18807;52.434;13.238;2023-02-14T19:13:37;102969.50;;;5.62;100.00
32330;BME280;18807;52.434;13.238;2023-02-14T19:21:14;102971.03;;;5.59;100.00
32330;BME280;18807;52.434;13.238;2023-02-14T19:28:52;102966.72;;;5.48;100.00
32330;BME280;18807;52.434;13.238;2023-02-14T19:36:28;102963.28;;;5.49;100.00
32330;BME280;18807;52.434;13.238;2023-02-14T19:44:04;102962.22;;;5.47;100.00
32330;BME280;18807;52.434;13.238;2023-02-14T19:51:43;102965.63;;;5.33;100.00
32330;BME280;18807;52.434;13.238;2023-02-14T19:59:21;102955.84;;;5.32;100.00
32330;BME280;18807;52.434;13.238;2023-02-14T20:06:56;102954.13;;;5.32;100.00
32330;BME280;18807;52.434;13.238;2023-02-14T20:14:35;102951.38;;;5.31;100.00
32330;BME280;18807;52.434;13.238;2023-02-14T20:22:24;102939.50;;;5.26;100.00
32330;BME280;18807;52.434;13.238;2023-02-14T20:29:58;102941.63;;;5.18;100.00
32330;BME280;18807;52.434;13.238;2023-02-14T20:37:33;102930.91;;;5.17;100.00
32330;BME280;18807;52.434;13.238;2023-02-14T20:45:07;102934.06;;;5.11;100.00
32330;BME280;18807;52.434;13.238;2023-02-14T20:52:43;102918.16;;;5.11;100.00
32330;BME280;18807;52.434;13.238;2023-02-14T21:00:17;102914.47;;;5.09;100.00
32330;BME280;18807;52.434;13.238;2023-02-14T21:07:53;102905.50;;;5.07;100.00
32330;BME280;18807;52.434;13.238;2023-02-14T21:15:27;102909.78;;;5.05;100.00
32330;BME280;18807;52.434;13.238;2023-02-14T21:23:02;102902.78;;;4.94;100.00
32330;BME280;18807;52.434;13.238;2023-02-14T21:30:36;102894.50;;;4.90;100.00
32330;BME280;18807;52.434;13.238;2023-02-14T21:38:12;102890.53;;;4.83;100.00
32330;BME280;18807;52.434;13.238;2023-02-14T21:45:46;102887.38;;;4.64;100.00
32330;BME280;18807;52.434;13.238;2023-02-14T21:53:28;102875.41;;;4.58;100.00
32330;BME280;18807;52.434;13.238;2023-02-14T22:01:01;102872.75;;;4.58;100.00
32330;BME280;18807;52.434;13.238;2023-02-14T22:08:37;102878.03;;;4.58;100.00
32330;BME280;18807;52.434;13.238;2023-02-14T22:16:13;102876.66;;;4.51;100.00
32330;BME280;18807;52.434;13.238;2023-02-14T22:23:50;102865.28;;;4.41;100.00
32330;BME280;18807;52.434;13.238;2023-02-14T22:31:24;102869.59;;;4.27;100.00
32330;BME280;18807;52.434;13.238;2023-02-14T22:39:00;102852.50;;;4.10;100.00
32330;BME280;18807;52.434;13.238;2023-02-14T22:46:35;102850.88;;;4.01;100.00
32330;BME280;18807;52.434;13.238;2023-02-14T22:54:13;102845.50;;;3.88;100.00
32330;BME280;18807;52.434;13.238;2023-02-14T23:01:48;102834.22;;;3.79;100.00
32330;BME280;18807;52.434;13.238;2023-02-14T23:09:24;102827.44;;;3.71;100.00
32330;BME280;18807;52.434;13.238;2023-02-14T23:16:58;102837.47;;;3.63;100.00
32330;BME280;18807;52.434;13.238;2023-02-14T23:24:52;102828.59;;;3.51;100.00
32330;BME280;18807;52.434;13.238;2023-02-14T23:32:27;102818.94;;;3.40;100.00
32330;BME280;18807;52.434;13.238;2023-02-14T23:40:02;102818.22;;;3.31;100.00
32330;BME280;18807;52.434;13.238;2023-02-14T23:47:37;102820.28;;;3.24;100.00
32330;BME280;18807;52.434;13.238;2023-02-14T23:55:12;102819.31;;;3.12;100.00
